MDT,Max TemperatureF,Mean TemperatureF,Min TemperatureF,Max Dew PointF,MeanDew PointF,Min DewpointF,Max Humidity, Mean Humidity, Min Humidity, Max Sea Level PressureIn, Mean Sea Level PressureIn, Min Sea Level PressureIn, Max VisibilityMiles, Mean VisibilityMiles, Min VisibilityMiles, Max Wind SpeedMPH, Mean Wind SpeedMPH, Max Gust SpeedMPH,PrecipitationIn, CloudCover, Events, WindDirDegrees
2011-10-1,64,58,53,57,52,45,100,83,52,29.97,29.93,29.87,10,10,4,9,2,,0.02,6,Rain,265
2011-10-2,64,55,46,61,53,46,100,94,68,29.96,29.90,29.82,10,8,0,10,1,16,0.12,7,Fog-Rain,147
2011-10-3,64,60,55,59,56,52,100,91,64,29.84,29.82,29.80,10,9,3,10,2,,0.17,7,Rain,176
2011-10-4,59,52,46,54,49,46,100,88,63,29.82,29.65,29.42,10,8,0,15,3,18,0.22,6,Fog-Rain,130
2011-10-5,59,54,48,52,50,48,100,93,72,29.64,29.52,29.43,10,9,3,14,5,18,0.31,8,Rain,170
2011-10-6,62,53,44,55,50,45,100,92,68,30.11,29.95,29.78,10,8,0,13,3,,0.21,6,Fog-Rain,230
2011-10-7,59,56,53,59,56,54,100,100,100,30.19,30.16,30.13,10,5,2,9,1,16,0.20,8,Rain,145
2011-10-8,66,60,53,61,55,52,100,89,64,30.22,30.18,30.14,10,8,1,12,1,,0.01,6,Rain,212
2011-10-9,60,56,53,59,56,54,100,99,94,30.13,30.03,29.88,10,6,1,8,1,,0.21,8,Rain,293
2011-10-10,62,58,53,63,57,52,100,97,77,29.82,29.67,29.57,10,7,1,15,4,23,0.38,8,Rain,170
2011-10-11,60,58,55,59,55,52,100,88,77,30.08,29.87,29.67,10,8,2,20,13,31,0.50,7,Rain,205
2011-10-12,62,55,48,57,52,48,100,88,63,30.26,30.22,30.15,10,8,1,7,1,,0.25,4,Rain,252
2011-10-13,57,54,50,54,51,48,100,94,72,30.23,30.15,30.03,10,8,1,5,1,,0.02,6,Rain,172
2011-10-14,62,53,44,55,49,45,100,92,63,29.97,29.95,29.93,10,9,0,9,2,,0.01,5,Fog-Rain,154
2011-10-15,66,55,44,63,52,45,100,95,59,30.04,30.00,29.95,10,5,0,6,0,,0.00,4,Fog,260
2011-10-16,60,53,46,55,50,46,100,90,67,30.26,30.14,29.98,10,7,0,16,3,20,0.01,3,Fog,292
2011-10-17,66,52,39,57,47,39,100,88,52,30.37,30.31,30.21,10,4,0,8,1,,0.00,4,Fog,8
2011-10-18,78,60,42,55,48,43,100,74,32,30.18,30.03,29.93,10,9,5,14,4,17,0.00,0,,124
2011-10-19,60,55,50,57,53,50,100,91,68,30.13,30.02,29.93,10,9,4,9,2,,0.00,7,Rain,231
2011-10-20,60,55,50,55,53,50,100,95,77,30.14,30.10,30.05,10,8,1,5,1,,0.01,5,Rain,316
2011-10-21,59,55,51,59,55,52,100,98,82,30.28,30.21,30.13,10,8,2,13,2,,0.01,8,Rain,176
2011-10-22,62,60,57,63,60,57,100,100,94,30.29,30.27,30.24,10,7,3,12,5,16,0.01,8,Rain,189
2011-10-23,60,56,53,61,56,54,100,97,77,30.24,30.20,30.14,10,5,0,10,2,,0.08,7,Fog-Rain,286
2011-10-24,59,48,37,55,45,37,100,92,63,30.34,30.29,30.21,10,6,0,14,2,16,0.02,5,Fog-Rain,291
2011-10-25,60,46,33,52,40,34,100,90,48,30.43,30.40,30.35,10,5,0,13,1,,0.00,5,Fog,282
2011-10-26,55,44,33,48,40,34,100,86,58,30.37,30.31,30.27,10,10,7,7,3,,0.00,4,,146
2011-10-27,60,48,35,50,42,36,100,87,48,30.33,30.23,30.07,10,6,0,6,0,,0.00,3,Fog,147
2011-10-28,59,50,42,59,48,41,100,90,72,30.08,30.05,29.99,10,8,3,21,5,33,0.41,4,Rain,162
2011-10-29,64,54,44,57,50,45,100,91,59,30.29,30.23,30.15,10,3,0,7,0,,0.01,4,Fog-Rain,197
2011-10-30,60,56,53,61,57,54,100,100,100,30.20,30.15,30.11,,,,10,2,18,0.26,8,,226
2011-10-31,57,50,42,54,46,41,100,90,62,30.47,30.39,30.28,10,8,0,16,3,21,0.02,5,Fog-Rain,292